This is the latest recevied weather packets stored in our database for station/object K7ZQU-7. If no packets are shown the sender has not sent any weather packets the latest 10 day(s).
| Time | Temp. | Humidity | Pressure | Rain* | Wind** | Luminosity | Snow |
|---|---|---|---|---|---|---|---|
| 1777658772 | 15° C | 39% | 1016.5 hPa | 0 mm | 1.79 m/s, 111° | - | - |
| 1777658473 | 15° C | 41% | 1016.4 hPa | 0 mm | 0.89 m/s, 195° | - | - |
| 1777658174 | 14.44° C | 41% | 1016.4 hPa | 0 mm | 0.89 m/s, 13° | - | - |
| 1777657875 | 14.44° C | 41% | 1016.4 hPa | 0 mm | 0.89 m/s, 122° | - | - |
| 1777657573 | 14.44° C | 40% | 1016.4 hPa | 0 mm | 0.45 m/s, 191° | - | - |
| 1777657274 | 14.44° C | 41% | 1016.4 hPa | 0 mm | 0.89 m/s, 35° | - | - |
| 1777656075 | 13.89° C | 42% | 1016.3 hPa | 0 mm | 0.89 m/s, 113° | - | - |
| 1777655776 | 13.33° C | 42% | 1016.3 hPa | 0 mm | 0.89 m/s, 153° | - | - |
| 1777655477 | 13.33° C | 43% | 1016.3 hPa | 0 mm | 1.34 m/s, 260° | - | - |
| 1777655178 | 12.78° C | 43% | 1016.2 hPa | 0 mm | 0.89 m/s, 150° | - | - |
| 1777654879 | 12.78° C | 42% | 1016.2 hPa | 0 mm | 1.79 m/s, 63° | - | - |
| 1777654577 | 12.22° C | 44% | 1016.2 hPa | 0 mm | 0.89 m/s, 117° | - | - |
| 1777654278 | 12.22° C | 45% | 1016.2 hPa | 0 mm | 0.45 m/s, 150° | - | - |
| 1777653979 | 12.22° C | 44% | 1016.2 hPa | 0 mm | 0.89 m/s, 167° | - | - |
| 1777653381 | 12.22° C | 45% | 1016.2 hPa | 0 mm | 1.34 m/s, 103° | - | - |
| 1777653079 | 12.22° C | 47% | 1016 hPa | 0 mm | 1.34 m/s, 232° | - | - |
| 1777652780 | 12.22° C | 48% | 1016 hPa | 0 mm | 0.89 m/s, 79° | - | - |
| 1777652481 | 12.22° C | 46% | 1016 hPa | 0 mm | 1.79 m/s, 10° | - | - |
| 1777652182 | 12.22° C | 47% | 1015.9 hPa | 0 mm | 1.79 m/s, 197° | - | - |
| 1777651581 | 11.67° C | 48% | 1016 hPa | 0 mm | 1.79 m/s, 128° | - | - |
| 1777651283 | 11.67° C | 50% | 1015.9 hPa | 0 mm | 0.45 m/s, 200° | - | - |
| 1777650983 | 11.67° C | 50% | 1015.9 hPa | 0 mm | 1.79 m/s, 205° | - | - |
| 1777650684 | 11.11° C | 53% | 1015.9 hPa | 0 mm | 0.89 m/s, 114° | - | - |
| 1777650385 | 11.11° C | 53% | 1015.9 hPa | 0 mm | 0.45 m/s, 103° | - | - |
| 1777650083 | 11.11° C | 52% | 1015.9 hPa | 0 mm | 0.45 m/s, 153° | - | - |
* Rain latest hour (hover to see other rain measurements)
** Current wind speed in m/s (hover to see current wind gust speed)